createdAt,value
2019-03-05T00:00:43.833Z,99.90
2019-03-05T00:03:12.629Z,99.90
2019-03-05T00:07:43.389Z,99.90
2019-03-05T00:10:14.734Z,99.90
2019-03-05T00:12:43.562Z,99.90
2019-03-05T00:15:17.445Z,99.90
2019-03-05T00:17:46.352Z,99.90
2019-03-05T00:20:15.050Z,99.90
2019-03-05T00:22:43.810Z,99.90
2019-03-05T00:25:15.314Z,99.90
2019-03-05T00:27:47.341Z,99.90
2019-03-05T00:30:25.264Z,99.90
2019-03-05T00:33:08.954Z,99.90
2019-03-05T00:35:40.613Z,99.90
2019-03-05T00:38:12.327Z,99.90
2019-03-05T00:40:53.001Z,99.90
2019-03-05T00:43:36.662Z,99.90
2019-03-05T00:46:11.018Z,99.90
2019-03-05T00:48:47.416Z,99.90
2019-03-05T00:51:30.889Z,99.90
2019-03-05T00:54:17.545Z,99.90
2019-03-05T00:57:01.385Z,99.90
2019-03-05T00:59:48.034Z,99.90
2019-03-05T01:02:48.718Z,99.90
2019-03-05T01:05:32.307Z,99.90
2019-03-05T01:08:01.243Z,99.90
2019-03-05T01:10:30.017Z,99.90
2019-03-05T01:12:58.949Z,99.90
2019-03-05T01:15:27.765Z,99.90
2019-03-05T01:17:56.502Z,99.90
2019-03-05T01:20:25.301Z,99.90
2019-03-05T01:22:54.138Z,99.90
2019-03-05T01:25:28.826Z,99.90
2019-03-05T01:27:57.580Z,99.90
2019-03-05T01:30:34.030Z,99.90
2019-03-05T01:33:04.433Z,99.90
2019-03-05T01:35:34.802Z,99.90
2019-03-05T01:38:03.574Z,99.90
2019-03-05T01:40:33.956Z,99.90
2019-03-05T01:43:02.718Z,99.90
2019-03-05T01:45:31.509Z,99.90
2019-03-05T01:48:00.270Z,99.90
2019-03-05T01:50:28.997Z,99.90
2019-03-05T01:52:57.820Z,99.90
2019-03-05T01:55:26.557Z,99.90
2019-03-05T01:57:55.314Z,99.90
2019-03-05T02:00:24.119Z,99.90
2019-03-05T02:02:53.060Z,99.90
2019-03-05T02:05:21.789Z,99.90
2019-03-05T02:07:51.657Z,99.90
2019-03-05T02:10:22.273Z,99.90
2019-03-05T02:12:51.005Z,99.90
2019-03-05T02:15:19.838Z,99.90
2019-03-05T02:17:48.571Z,99.90
2019-03-05T02:20:20.145Z,99.90
2019-03-05T02:22:51.877Z,99.90
2019-03-05T02:25:26.388Z,99.90
2019-03-05T02:28:10.257Z,99.90
2019-03-05T02:30:56.373Z,99.90
2019-03-05T02:33:49.372Z,99.90
2019-03-05T02:36:30.082Z,99.90
2019-03-05T02:39:04.494Z,99.90
2019-03-05T02:41:44.859Z,99.90
2019-03-05T02:44:39.022Z,99.90
2019-03-05T02:47:19.634Z,99.90
2019-03-05T02:49:57.081Z,99.90
2019-03-05T02:52:31.290Z,99.90
2019-03-05T02:55:11.957Z,99.90
2019-03-05T02:57:39.578Z,99.90
2019-03-05T03:00:12.071Z,99.90
2019-03-05T03:02:48.210Z,99.90
2019-03-05T03:05:28.078Z,99.90
2019-03-05T03:07:56.809Z,99.90
2019-03-05T03:10:26.006Z,99.90
2019-03-05T03:12:54.766Z,99.90
2019-03-05T03:15:23.569Z,99.90
2019-03-05T03:17:52.435Z,99.90
2019-03-05T03:20:21.369Z,99.90
2019-03-05T03:22:50.298Z,99.90
2019-03-05T03:25:19.170Z,99.90
2019-03-05T03:27:47.931Z,99.90
2019-03-05T03:30:19.338Z,99.90
2019-03-05T03:32:48.130Z,99.90
2019-03-05T03:35:16.885Z,99.90
2019-03-05T03:37:45.646Z,99.90
2019-03-05T03:40:18.898Z,99.90
2019-03-05T03:42:47.798Z,99.90
2019-03-05T03:45:19.035Z,99.90
2019-03-05T03:47:47.799Z,99.90
2019-03-05T03:50:16.595Z,99.90
2019-03-05T03:52:45.388Z,99.90
2019-03-05T03:55:15.621Z,99.90
2019-03-05T03:57:44.343Z,99.90
2019-03-05T04:00:15.774Z,99.90
2019-03-05T04:02:44.910Z,99.90
2019-03-05T04:05:13.864Z,99.90
2019-03-05T04:07:42.608Z,99.90
2019-03-05T04:10:13.431Z,99.90
2019-03-05T04:12:42.159Z,99.90
2019-03-05T04:15:13.491Z,99.90
2019-03-05T04:17:42.286Z,99.90
2019-03-05T04:20:25.215Z,99.90
2019-03-05T04:22:53.994Z,99.90
2019-03-05T04:25:22.766Z,99.90
2019-03-05T04:27:51.682Z,99.90
2019-03-05T04:30:22.371Z,99.90
2019-03-05T04:32:50.806Z,99.90
2019-03-05T04:35:19.641Z,99.90
2019-03-05T04:37:48.394Z,99.90
2019-03-05T04:40:17.102Z,99.90
2019-03-05T04:42:45.934Z,99.90
2019-03-05T04:45:53.649Z,99.90
2019-03-05T04:48:22.478Z,99.90
2019-03-05T04:50:52.862Z,99.90
2019-03-05T04:53:21.695Z,99.90
2019-03-05T04:55:50.430Z,99.90
2019-03-05T04:58:19.189Z,99.90
2019-03-05T05:00:47.989Z,99.90
2019-03-05T05:03:17.149Z,99.90
2019-03-05T05:05:45.877Z,99.90
2019-03-05T05:08:14.664Z,99.90
2019-03-05T05:10:43.393Z,99.90
2019-03-05T05:13:12.148Z,99.90
2019-03-05T05:15:40.929Z,99.90
2019-03-05T05:18:09.697Z,99.90
2019-03-05T05:20:38.420Z,99.90
2019-03-05T05:23:07.182Z,99.90
2019-03-05T05:25:35.909Z,99.90
2019-03-05T05:28:04.670Z,99.90
2019-03-05T05:30:35.196Z,99.90
2019-03-05T05:33:04.656Z,99.90
2019-03-05T05:35:33.450Z,99.90
2019-03-05T05:38:02.187Z,99.90
2019-03-05T05:40:38.825Z,99.90
2019-03-05T05:43:10.389Z,99.90
2019-03-05T05:45:42.089Z,99.90
2019-03-05T05:48:10.944Z,99.90
2019-03-05T05:50:39.730Z,99.90
2019-03-05T05:53:08.462Z,99.90
2019-03-05T05:55:37.225Z,99.90
2019-03-05T05:58:05.961Z,99.90
2019-03-05T06:00:36.361Z,99.90
2019-03-05T06:03:05.089Z,99.90
2019-03-05T06:05:33.845Z,99.90
2019-03-05T06:08:02.642Z,99.90
2019-03-05T06:10:31.402Z,99.90
2019-03-05T06:13:00.147Z,99.90
2019-03-05T06:15:28.909Z,99.90
2019-03-05T06:17:57.637Z,99.90
2019-03-05T06:20:26.409Z,99.90
2019-03-05T06:22:55.173Z,99.90
2019-03-05T06:25:23.994Z,99.90
2019-03-05T06:27:52.777Z,99.90
2019-03-05T06:30:27.017Z,99.90
2019-03-05T06:32:55.782Z,99.90
2019-03-05T06:35:24.518Z,99.90
2019-03-05T06:37:53.281Z,99.90
2019-03-05T06:40:26.918Z,99.90
2019-03-05T06:42:55.781Z,99.90
2019-03-05T06:45:24.510Z,99.90
2019-03-05T06:47:53.273Z,99.90
2019-03-05T06:50:26.475Z,99.90
2019-03-05T06:52:55.345Z,99.90
2019-03-05T06:55:24.194Z,99.90
2019-03-05T06:57:52.955Z,99.90
2019-03-05T07:00:34.297Z,99.90
2019-03-05T07:03:04.307Z,99.90
2019-03-05T07:06:09.717Z,99.90
2019-03-05T07:08:41.149Z,99.90
2019-03-05T07:11:33.817Z,99.90
2019-03-05T07:14:23.367Z,99.90
2019-03-05T07:17:15.816Z,99.90
2019-03-05T07:19:57.913Z,99.90
2019-03-05T07:22:26.433Z,99.90
2019-03-05T07:24:55.201Z,99.90
2019-03-05T07:27:26.408Z,99.90
2019-03-05T07:29:57.594Z,99.90
2019-03-05T07:32:26.317Z,99.90
2019-03-05T07:34:55.150Z,99.90
2019-03-05T07:37:23.878Z,99.90
2019-03-05T07:39:52.705Z,99.90
2019-03-05T07:42:21.534Z,99.90
2019-03-05T07:44:50.265Z,99.90
2019-03-05T07:47:19.092Z,99.90
2019-03-05T07:49:47.829Z,99.90
2019-03-05T07:52:16.596Z,99.90
2019-03-05T07:54:45.330Z,99.90
2019-03-05T07:57:14.155Z,99.90
2019-03-05T07:59:42.882Z,99.90
2019-03-05T08:02:11.716Z,99.90
2019-03-05T08:04:40.444Z,99.90
2019-03-05T08:07:09.345Z,99.90
2019-03-05T08:09:38.786Z,99.90
2019-03-05T08:12:16.546Z,99.90
2019-03-05T08:14:51.166Z,99.90
2019-03-05T08:17:20.299Z,99.90
2019-03-05T08:19:49.053Z,99.90
2019-03-05T08:22:17.789Z,99.90
2019-03-05T08:24:46.549Z,99.90
2019-03-05T08:27:15.277Z,99.90
2019-03-05T08:29:44.037Z,99.90
2019-03-05T08:32:12.954Z,99.90
2019-03-05T08:34:41.718Z,99.90
2019-03-05T08:37:13.233Z,99.90
2019-03-05T08:39:41.901Z,99.90
2019-03-05T08:42:10.665Z,99.90
2019-03-05T08:44:49.633Z,99.90
2019-03-05T08:47:09.946Z,99.90
2019-03-05T08:49:38.711Z,99.90
2019-03-05T08:52:07.544Z,99.90
2019-03-05T08:54:36.301Z,99.90
2019-03-05T08:57:05.140Z,99.90
2019-03-05T08:59:33.910Z,99.90
2019-03-05T09:02:03.693Z,99.90
2019-03-05T09:04:32.480Z,99.90
2019-03-05T09:07:01.201Z,99.90
2019-03-05T09:09:29.998Z,99.90
2019-03-05T09:11:58.745Z,99.90
2019-03-05T09:14:27.473Z,99.90
2019-03-05T09:16:56.238Z,99.90
2019-03-05T09:19:25.009Z,99.90
2019-03-05T09:21:53.845Z,99.90
2019-03-05T09:24:22.687Z,99.90
2019-03-05T09:26:51.800Z,99.90
2019-03-05T09:29:20.590Z,99.90
2019-03-05T09:31:49.359Z,99.90
2019-03-05T09:34:18.086Z,99.90
2019-03-05T09:36:50.928Z,99.90
2019-03-05T09:39:17.467Z,99.90
2019-03-05T09:41:46.417Z,99.90
2019-03-05T09:44:15.160Z,99.90
2019-03-05T09:46:43.917Z,99.90
2019-03-05T09:49:12.653Z,99.90
2019-03-05T09:51:41.414Z,99.90
2019-03-05T09:54:10.213Z,99.90
2019-03-05T09:56:38.973Z,99.90
2019-03-05T09:59:07.798Z,99.90
2019-03-05T10:01:37.781Z,99.90
2019-03-05T10:04:06.601Z,99.90
2019-03-05T10:06:35.349Z,99.90
2019-03-05T10:09:05.677Z,99.90
2019-03-05T10:11:34.410Z,99.90
2019-03-05T10:14:03.168Z,99.90
2019-03-05T10:16:31.897Z,99.90
2019-03-05T10:19:00.761Z,99.90
2019-03-05T10:21:29.519Z,99.90
2019-03-05T10:24:09.537Z,99.90
2019-03-05T10:26:28.736Z,99.90
2019-03-05T10:28:57.671Z,99.90
2019-03-05T10:31:26.438Z,99.90
2019-03-05T10:33:55.168Z,99.90
2019-03-05T10:36:24.122Z,99.90
2019-03-05T10:38:57.426Z,99.90
2019-03-05T10:41:23.389Z,99.90
2019-03-05T10:43:52.121Z,99.90
2019-03-05T10:46:20.965Z,99.90
2019-03-05T10:48:49.829Z,99.90
2019-03-05T10:51:18.701Z,99.90
2019-03-05T10:53:47.502Z,99.90
2019-03-05T10:56:16.746Z,99.90
2019-03-05T10:58:45.469Z,99.90
2019-03-05T11:01:14.473Z,99.90
2019-03-05T11:03:43.239Z,99.90
2019-03-05T11:06:12.021Z,99.90
2019-03-05T11:08:40.818Z,99.90
2019-03-05T11:11:13.507Z,99.90
2019-03-05T11:13:40.138Z,99.90
2019-03-05T11:16:09.198Z,99.90
2019-03-05T11:18:38.353Z,99.90
2019-03-05T11:21:07.349Z,99.90
2019-03-05T11:23:37.889Z,99.90
2019-03-05T11:26:06.605Z,99.90
2019-03-05T11:28:35.417Z,99.90
2019-03-05T11:31:05.626Z,99.90
2019-03-05T11:33:34.433Z,99.90
2019-03-05T11:36:03.340Z,99.90
2019-03-05T11:38:32.100Z,99.90
2019-03-05T11:41:01.585Z,99.90
2019-03-05T11:43:30.723Z,99.90
2019-03-05T11:45:59.719Z,99.90
2019-03-05T11:48:28.449Z,99.90
2019-03-05T11:50:57.208Z,99.90
2019-03-05T11:53:26.009Z,99.90
2019-03-05T11:55:54.762Z,99.90
2019-03-05T11:58:23.610Z,99.90
2019-03-05T12:01:02.978Z,99.90
2019-03-05T12:03:31.709Z,99.90
2019-03-05T12:06:00.483Z,99.90
2019-03-05T12:08:29.233Z,99.90
2019-03-05T12:10:58.053Z,99.90
2019-03-05T12:13:26.978Z,99.90
2019-03-05T12:15:55.916Z,99.90
2019-03-05T12:18:25.490Z,99.90
2019-03-05T12:20:54.417Z,99.90
2019-03-05T12:23:23.146Z,99.90
2019-03-05T12:25:51.909Z,98.80
2019-03-05T12:28:20.873Z,99.90
2019-03-05T12:30:49.625Z,98.80
2019-03-05T12:33:18.449Z,99.40
2019-03-05T12:35:47.182Z,98.40
2019-03-05T12:38:15.949Z,98.50
2019-03-05T12:40:44.749Z,99.40
2019-03-05T12:43:13.517Z,98.50
2019-03-05T12:45:42.322Z,98.70
2019-03-05T12:48:11.090Z,98.60
2019-03-05T12:50:39.931Z,99.50
2019-03-05T12:53:08.752Z,99.90
2019-03-05T12:55:37.476Z,99.90
2019-03-05T12:58:06.309Z,99.90
2019-03-05T13:00:36.205Z,97.20
2019-03-05T13:03:05.300Z,98.00
2019-03-05T13:05:34.069Z,98.30
2019-03-05T13:08:02.885Z,98.30
2019-03-05T13:10:35.939Z,99.40
2019-03-05T13:13:03.427Z,98.60
2019-03-05T13:15:33.481Z,99.00
2019-03-05T13:18:02.415Z,99.90
2019-03-05T13:20:31.184Z,99.70
2019-03-05T13:22:59.978Z,99.90
2019-03-05T13:25:29.914Z,99.90
2019-03-05T13:28:02.242Z,99.90
2019-03-05T13:30:30.332Z,99.90
2019-03-05T13:33:00.657Z,99.60
2019-03-05T13:35:32.044Z,98.90
2019-03-05T13:38:10.793Z,98.50
2019-03-05T13:40:40.622Z,99.30
2019-03-05T13:43:09.840Z,98.30
2019-03-05T13:45:43.884Z,99.40
2019-03-05T13:48:14.768Z,98.20
2019-03-05T13:51:11.669Z,99.10
2019-03-05T13:54:05.832Z,99.00
2019-03-05T13:56:42.196Z,99.00
2019-03-05T13:59:38.106Z,99.60
2019-03-05T14:02:08.393Z,98.80
2019-03-05T14:04:43.019Z,98.10
2019-03-05T14:07:31.167Z,98.40
2019-03-05T14:09:59.887Z,97.90
2019-03-05T14:12:28.764Z,98.00
2019-03-05T14:14:57.882Z,97.80
2019-03-05T14:17:26.839Z,98.50
2019-03-05T14:19:55.623Z,98.80
2019-03-05T14:22:24.327Z,99.10
2019-03-05T14:25:01.542Z,99.60
2019-03-05T14:27:23.534Z,99.80
2019-03-05T14:29:54.175Z,99.60
2019-03-05T14:32:22.754Z,99.90
2019-03-05T14:35:00.340Z,99.90
2019-03-05T14:37:30.535Z,99.90
2019-03-05T14:40:22.277Z,99.90
2019-03-05T14:42:30.624Z,99.90
2019-03-05T14:44:59.459Z,99.90
2019-03-05T14:47:29.475Z,99.90
2019-03-05T14:49:58.261Z,99.90
2019-03-05T14:52:27.016Z,99.90
2019-03-05T14:54:55.846Z,99.90
2019-03-05T14:57:24.624Z,99.90
2019-03-05T14:59:53.393Z,99.90
2019-03-05T15:02:22.155Z,99.90
2019-03-05T15:04:51.000Z,99.90
2019-03-05T15:07:19.791Z,99.90
2019-03-05T15:10:44.994Z,99.90
2019-03-05T15:13:17.346Z,99.90
2019-03-05T15:15:44.149Z,99.90
2019-03-05T15:18:12.895Z,99.90
2019-03-05T15:20:41.665Z,99.90
2019-03-05T15:23:10.518Z,99.90
2019-03-05T15:25:39.217Z,99.90
2019-03-05T15:28:08.060Z,99.90
2019-03-05T15:30:36.775Z,99.90
2019-03-05T15:33:05.677Z,99.90
2019-03-05T15:35:34.485Z,99.90
2019-03-05T15:38:03.371Z,99.90
2019-03-05T15:40:32.113Z,99.90
2019-03-05T15:43:01.181Z,99.90
2019-03-05T15:45:30.256Z,99.90
2019-03-05T15:47:59.035Z,99.90
2019-03-05T15:50:30.181Z,99.90
2019-03-05T15:52:58.921Z,99.90
2019-03-05T15:55:27.793Z,99.90
2019-03-05T15:57:56.533Z,99.90
2019-03-05T16:00:28.337Z,99.90
2019-03-05T16:02:57.236Z,99.90
2019-03-05T16:05:26.722Z,99.90
2019-03-05T16:07:55.611Z,99.90
2019-03-05T16:10:24.469Z,99.90
2019-03-05T16:12:53.290Z,99.90
2019-03-05T16:15:22.078Z,99.90
2019-03-05T16:17:50.817Z,99.90
2019-03-05T16:20:20.856Z,99.90
2019-03-05T16:22:51.063Z,99.90
2019-03-05T16:25:22.199Z,99.90
2019-03-05T16:27:51.192Z,99.90
2019-03-05T16:30:47.497Z,99.90
2019-03-05T16:33:17.869Z,99.90
2019-03-05T16:35:51.981Z,99.90
2019-03-05T16:38:38.938Z,99.90
2019-03-05T16:41:25.577Z,99.90
2019-03-05T16:43:55.962Z,99.90
2019-03-05T16:46:42.596Z,99.90
2019-03-05T16:49:16.057Z,99.90
2019-03-05T16:51:49.690Z,99.90
2019-03-05T16:54:35.397Z,99.90
2019-03-05T16:57:12.197Z,99.90
2019-03-05T16:59:53.219Z,99.90
2019-03-05T17:02:39.002Z,99.90
2019-03-05T17:05:14.645Z,99.90
2019-03-05T17:07:53.810Z,99.90
2019-03-05T17:10:40.711Z,99.90
2019-03-05T17:13:09.544Z,99.90
2019-03-05T17:15:38.386Z,99.90
2019-03-05T17:18:07.287Z,99.90
2019-03-05T17:20:36.048Z,99.90
2019-03-05T17:23:05.940Z,99.90
2019-03-05T17:25:34.797Z,99.90
2019-03-05T17:28:03.729Z,99.90
2019-03-05T17:30:32.505Z,99.90
2019-03-05T17:33:01.239Z,99.90
2019-03-05T17:35:30.304Z,99.90
2019-03-05T17:37:59.138Z,99.90
2019-03-05T17:40:27.966Z,99.90
2019-03-05T17:42:56.699Z,99.90
2019-03-05T17:45:26.055Z,99.90
2019-03-05T17:47:55.083Z,99.90
2019-03-05T17:50:23.814Z,99.90
2019-03-05T17:52:52.641Z,99.90
2019-03-05T17:55:27.326Z,99.90
2019-03-05T17:57:56.257Z,99.90
2019-03-05T18:00:26.621Z,99.90
2019-03-05T18:02:55.453Z,99.90
2019-03-05T18:05:24.193Z,99.90
2019-03-05T18:07:52.958Z,99.90
2019-03-05T18:10:21.989Z,99.90
2019-03-05T18:12:50.753Z,99.90
2019-03-05T18:15:19.482Z,99.90
2019-03-05T18:17:48.245Z,99.90
2019-03-05T18:20:19.819Z,99.90
2019-03-05T18:22:48.953Z,99.90
2019-03-05T18:25:19.475Z,99.90
2019-03-05T18:27:49.636Z,99.90
2019-03-05T18:30:20.836Z,99.90
2019-03-05T18:32:49.597Z,99.90
2019-03-05T18:35:18.826Z,99.90
2019-03-05T18:37:47.569Z,99.90
2019-03-05T18:40:20.641Z,99.90
2019-03-05T18:42:49.677Z,99.90
2019-03-05T18:45:32.504Z,99.90
2019-03-05T18:48:01.245Z,99.90
2019-03-05T18:50:30.004Z,99.90
2019-03-05T18:52:59.734Z,99.90
2019-03-05T18:55:28.789Z,99.90
2019-03-05T18:57:57.519Z,99.90
2019-03-05T19:00:33.929Z,99.90
2019-03-05T19:03:07.910Z,99.90
2019-03-05T19:05:37.070Z,99.90
2019-03-05T19:08:05.806Z,99.90
2019-03-05T19:10:34.573Z,99.90
2019-03-05T19:13:03.678Z,99.90
2019-03-05T19:15:32.437Z,99.90
2019-03-05T19:18:01.510Z,99.90
2019-03-05T19:20:33.339Z,99.90
2019-03-05T19:23:02.093Z,99.90
2019-03-05T19:25:39.430Z,99.90
2019-03-05T19:28:08.817Z,99.90
2019-03-05T19:30:45.894Z,99.90
2019-03-05T19:33:14.654Z,99.90
2019-03-05T19:35:43.385Z,99.90
2019-03-05T19:38:12.153Z,99.90
2019-03-05T19:40:44.932Z,99.90
2019-03-05T19:43:13.697Z,99.90
2019-03-05T19:45:42.483Z,99.90
2019-03-05T19:48:11.241Z,99.90
2019-03-05T19:50:39.976Z,99.90
2019-03-05T19:53:08.818Z,99.90
2019-03-05T19:55:37.546Z,99.90
2019-03-05T19:58:10.046Z,99.90
2019-03-05T20:00:43.018Z,99.90
2019-03-05T20:03:11.778Z,99.90
2019-03-05T20:05:40.605Z,99.90
2019-03-05T20:08:09.344Z,99.90
2019-03-05T20:10:38.898Z,99.90
2019-03-05T20:13:07.630Z,99.90
2019-03-05T20:15:36.406Z,99.90
2019-03-05T20:18:07.279Z,99.90
2019-03-05T20:20:35.889Z,99.90
2019-03-05T20:23:05.232Z,99.90
2019-03-05T20:25:34.090Z,99.90
2019-03-05T20:28:02.826Z,99.90
2019-03-05T20:30:31.755Z,99.90
2019-03-05T20:33:00.525Z,99.90
2019-03-05T20:35:29.438Z,99.90
2019-03-05T20:37:58.242Z,99.90
2019-03-05T20:40:28.607Z,99.90
2019-03-05T20:42:59.396Z,99.90
2019-03-05T20:45:42.221Z,99.90
2019-03-05T20:48:11.025Z,99.90
2019-03-05T20:50:39.828Z,99.90
2019-03-05T20:53:08.589Z,99.90
2019-03-05T20:55:37.399Z,99.90
2019-03-05T20:58:06.242Z,99.90
2019-03-05T21:00:36.541Z,99.90
2019-03-05T21:03:07.478Z,99.90
2019-03-05T21:05:43.817Z,99.90
2019-03-05T21:08:12.762Z,99.90
2019-03-05T21:10:41.487Z,99.90
2019-03-05T21:13:10.552Z,99.90
2019-03-05T21:15:39.393Z,99.90
2019-03-05T21:18:14.999Z,99.90
2019-03-05T21:20:43.753Z,99.90
2019-03-05T21:23:12.609Z,99.90
2019-03-05T21:25:41.345Z,99.90
2019-03-05T21:28:10.109Z,99.90
2019-03-05T21:30:39.123Z,99.90
2019-03-05T21:33:07.955Z,99.90
2019-03-05T21:35:37.018Z,99.90
2019-03-05T21:38:05.931Z,99.90
2019-03-05T21:40:34.824Z,99.90
2019-03-05T21:43:03.638Z,99.90
2019-03-05T21:45:41.166Z,99.90
2019-03-05T21:48:09.991Z,99.90
2019-03-05T21:50:38.854Z,99.90
2019-03-05T21:53:07.581Z,99.90
2019-03-05T21:55:36.345Z,99.90
2019-03-05T21:58:05.148Z,99.90
2019-03-05T22:00:41.067Z,99.90
2019-03-05T22:03:09.807Z,99.90
2019-03-05T22:05:38.638Z,99.90
2019-03-05T22:08:07.374Z,99.90
2019-03-05T22:10:36.496Z,99.90
2019-03-05T22:13:05.309Z,99.90
2019-03-05T22:15:35.181Z,99.90
2019-03-05T22:18:04.221Z,99.90
2019-03-05T22:20:33.014Z,99.90
2019-03-05T22:23:02.099Z,99.90
2019-03-05T22:25:30.831Z,99.90
2019-03-05T22:27:59.593Z,99.90
2019-03-05T22:30:30.880Z,99.90
2019-03-05T22:32:59.646Z,99.90
2019-03-05T22:35:28.463Z,99.90
2019-03-05T22:37:57.221Z,99.90
2019-03-05T22:40:27.148Z,99.90
2019-03-05T22:42:56.009Z,99.90
2019-03-05T22:45:26.241Z,99.90
2019-03-05T22:47:55.104Z,99.90
2019-03-05T22:50:23.852Z,99.90
2019-03-05T22:52:52.784Z,99.90
2019-03-05T22:55:21.614Z,99.90
2019-03-05T22:57:50.416Z,99.90
2019-03-05T23:00:23.777Z,99.90
2019-03-05T23:02:52.513Z,99.90
2019-03-05T23:05:22.237Z,99.90
2019-03-05T23:07:51.155Z,99.90
2019-03-05T23:10:20.316Z,99.90
2019-03-05T23:12:49.286Z,99.90
2019-03-05T23:15:18.525Z,99.90
2019-03-05T23:17:47.325Z,99.90
2019-03-05T23:20:17.486Z,99.90
2019-03-05T23:22:46.609Z,99.90
2019-03-05T23:25:16.666Z,99.90
2019-03-05T23:27:45.528Z,99.90
2019-03-05T23:30:18.647Z,99.90
2019-03-05T23:32:49.877Z,99.90
2019-03-05T23:35:19.409Z,99.90
2019-03-05T23:37:48.206Z,99.90
2019-03-05T23:40:17.670Z,99.90
2019-03-05T23:42:46.653Z,99.90
2019-03-05T23:45:19.502Z,99.90
2019-03-05T23:47:49.466Z,99.90
2019-03-05T23:50:18.546Z,99.90
2019-03-05T23:52:50.336Z,99.90
2019-03-05T23:55:19.570Z,99.90
2019-03-05T23:57:48.333Z,99.90
